createdAt,value
2024-05-09T00:00:15.489Z,67.18
2024-05-09T00:01:20.725Z,73.87
2024-05-09T00:02:27.594Z,77.32
2024-05-09T00:03:34.478Z,80.65
2024-05-09T00:04:41.292Z,85.79
2024-05-09T00:05:48.071Z,87.48
2024-05-09T00:06:54.810Z,84.95
2024-05-09T00:08:01.707Z,80.53
2024-05-09T00:09:08.553Z,80.59
2024-05-09T00:10:25.033Z,79.45
2024-05-09T00:11:26.997Z,77.77
2024-05-09T00:12:33.724Z,79.09
2024-05-09T00:13:40.480Z,76.05
2024-05-09T00:14:47.194Z,73.36
2024-05-09T00:15:53.930Z,70.04
2024-05-09T00:17:00.763Z,64.51
2024-05-09T00:18:08.254Z,65.50
2024-05-09T00:19:15.392Z,61.17
2024-05-09T00:20:28.389Z,56.70
2024-05-09T00:21:33.857Z,63.07
2024-05-09T00:22:40.630Z,71.33
2024-05-09T00:23:47.386Z,70.61
2024-05-09T00:24:54.103Z,74.15
2024-05-09T00:26:00.889Z,82.66
2024-05-09T00:27:08.453Z,85.12
2024-05-09T00:28:15.912Z,92.14
2024-05-09T00:29:22.693Z,87.88
2024-05-09T00:30:34.483Z,87.24
2024-05-09T00:31:41.080Z,83.67
2024-05-09T00:32:47.960Z,82.36
2024-05-09T00:33:54.824Z,89.21
2024-05-09T00:35:01.635Z,83.72
2024-05-09T00:36:08.345Z,76.65
2024-05-09T00:37:15.083Z,73.63
2024-05-09T00:38:21.882Z,72.70
2024-05-09T00:39:28.621Z,69.63
2024-05-09T00:40:39.613Z,63.78
2024-05-09T00:41:47.005Z,59.93
2024-05-09T00:42:53.738Z,62.72
2024-05-09T00:44:00.490Z,53.46
2024-05-09T00:45:07.261Z,58.67
2024-05-09T00:46:13.992Z,55.52
2024-05-09T00:47:21.011Z,57.14
2024-05-09T00:48:28.027Z,59.86
2024-05-09T00:49:34.929Z,61.66
2024-05-09T00:50:42.247Z,67.50
2024-05-09T00:51:49.108Z,75.56
2024-05-09T00:52:55.890Z,76.32
2024-05-09T00:54:02.602Z,84.81
2024-05-09T00:55:09.360Z,88.16
2024-05-09T00:56:16.185Z,84.67
2024-05-09T00:57:22.868Z,83.59
2024-05-09T00:58:29.596Z,88.25
2024-05-09T00:59:36.384Z,86.69
2024-05-09T01:00:43.248Z,85.58
2024-05-09T01:01:50.174Z,86.32
2024-05-09T01:02:57.030Z,82.87
2024-05-09T01:04:03.830Z,85.93
2024-05-09T01:05:10.864Z,85.32
2024-05-09T01:06:17.653Z,83.35
2024-05-09T01:07:24.415Z,93.59
2024-05-09T01:08:31.452Z,95.96
2024-05-09T01:09:38.225Z,95.82
2024-05-09T01:10:46.185Z,96.25
2024-05-09T01:11:55.021Z,98.81
2024-05-09T01:13:01.879Z,102.50
2024-05-09T01:14:08.630Z,88.71
2024-05-09T01:15:15.333Z,84.04
2024-05-09T01:16:22.040Z,88.01
2024-05-09T01:17:28.966Z,88.13
2024-05-09T01:18:35.920Z,84.84
2024-05-09T01:19:42.846Z,79.71
2024-05-09T01:20:49.756Z,85.51
2024-05-09T01:21:56.544Z,80.20
2024-05-09T01:23:03.301Z,81.01
2024-05-09T01:24:10.026Z,83.37
2024-05-09T01:25:16.775Z,81.38
2024-05-09T01:26:23.522Z,77.43
2024-05-09T01:27:30.235Z,79.44
2024-05-09T01:28:37.013Z,79.44
2024-05-09T01:29:43.722Z,76.02
2024-05-09T01:30:50.448Z,68.78
2024-05-09T01:31:57.298Z,69.98
2024-05-09T01:33:04.978Z,63.29
2024-05-09T01:34:12.604Z,63.09
2024-05-09T01:35:19.375Z,60.87
2024-05-09T01:36:26.081Z,65.50
2024-05-09T01:37:32.827Z,63.25
2024-05-09T01:38:39.604Z,72.11
2024-05-09T01:39:46.361Z,75.70
2024-05-09T01:40:53.180Z,85.62
2024-05-09T01:41:59.893Z,79.74
2024-05-09T01:43:06.882Z,82.31
2024-05-09T01:44:13.716Z,89.49
2024-05-09T01:45:20.690Z,94.48
2024-05-09T01:46:27.443Z,96.10
2024-05-09T01:47:34.365Z,97.64
2024-05-09T01:48:41.285Z,100.93
2024-05-09T01:49:48.036Z,101.92
2024-05-09T01:50:54.800Z,100.51
2024-05-09T01:52:01.580Z,100.99
2024-05-09T01:53:08.499Z,100.66
2024-05-09T01:54:15.288Z,104.75
2024-05-09T01:55:22.010Z,100.70
2024-05-09T01:56:28.893Z,98.59
2024-05-09T01:57:35.676Z,101.26
2024-05-09T01:58:42.504Z,101.77
2024-05-09T01:59:49.386Z,100.58
2024-05-09T02:00:56.159Z,99.73
2024-05-09T02:02:03.128Z,97.93
2024-05-09T02:03:11.544Z,91.71
2024-05-09T02:04:21.187Z,88.39
2024-05-09T02:05:28.165Z,85.43
2024-05-09T02:06:34.946Z,83.95
2024-05-09T02:07:41.692Z,79.49
2024-05-09T02:08:48.430Z,80.71
2024-05-09T02:09:55.183Z,86.58
2024-05-09T02:11:02.133Z,97.84
2024-05-09T02:12:09.171Z,90.72
2024-05-09T02:13:16.549Z,85.51
2024-05-09T02:14:23.633Z,85.55
2024-05-09T02:15:30.525Z,80.38
2024-05-09T02:16:37.254Z,82.68
2024-05-09T02:17:44.452Z,80.90
2024-05-09T02:18:51.553Z,80.35
2024-05-09T02:19:58.342Z,83.40
2024-05-09T02:21:05.190Z,81.03
2024-05-09T02:22:12.016Z,87.91
2024-05-09T02:23:18.771Z,87.55
2024-05-09T02:24:25.513Z,84.62
2024-05-09T02:25:32.429Z,91.87
2024-05-09T02:26:39.285Z,89.13
2024-05-09T02:27:46.007Z,88.65
2024-05-09T02:28:52.758Z,84.99
2024-05-09T02:29:59.520Z,86.86
2024-05-09T02:31:06.263Z,90.59
2024-05-09T02:32:13.096Z,88.56
2024-05-09T02:33:20.192Z,78.16
2024-05-09T02:34:27.162Z,75.61
2024-05-09T02:35:34.093Z,75.80
2024-05-09T02:36:40.858Z,81.07
2024-05-09T02:37:47.599Z,77.14
2024-05-09T02:38:54.352Z,73.12
2024-05-09T02:40:01.094Z,79.88
2024-05-09T02:41:07.878Z,83.06
2024-05-09T02:42:14.818Z,107.97
2024-05-09T02:43:21.560Z,124.80
2024-05-09T02:44:28.297Z,122.46
2024-05-09T02:45:34.991Z,132.03
2024-05-09T02:46:41.747Z,132.12
2024-05-09T02:47:48.741Z,128.10
2024-05-09T02:48:55.725Z,132.99
2024-05-09T02:50:02.562Z,127.09
2024-05-09T02:51:09.971Z,131.62
2024-05-09T02:52:16.825Z,133.97
2024-05-09T02:53:23.640Z,137.35
2024-05-09T02:54:30.376Z,129.83
2024-05-09T02:55:37.147Z,134.47
2024-05-09T02:56:43.896Z,129.81
2024-05-09T02:57:50.621Z,125.97
2024-05-09T02:58:57.424Z,121.04
2024-05-09T03:00:06.107Z,121.18
2024-05-09T03:01:14.482Z,121.75
2024-05-09T03:02:21.421Z,121.40
2024-05-09T03:03:28.470Z,123.19
2024-05-09T03:04:35.490Z,125.89
2024-05-09T03:05:42.764Z,129.05
2024-05-09T03:06:49.643Z,132.10
2024-05-09T03:07:56.480Z,129.10
2024-05-09T03:09:03.269Z,132.66
2024-05-09T03:10:18.259Z,139.06
2024-05-09T03:11:21.697Z,132.72
2024-05-09T03:12:28.538Z,138.76
2024-05-09T03:13:35.333Z,148.40
2024-05-09T03:14:42.102Z,147.67
2024-05-09T03:15:48.827Z,143.87
2024-05-09T03:16:55.588Z,139.33
2024-05-09T03:18:02.594Z,124.31
2024-05-09T03:19:09.820Z,107.75
2024-05-09T03:20:23.379Z,111.22
2024-05-09T03:21:28.236Z,101.67
2024-05-09T03:22:34.956Z,99.01
2024-05-09T03:23:41.783Z,96.72
2024-05-09T03:24:48.580Z,97.95
2024-05-09T03:25:55.320Z,100.05
2024-05-09T03:27:02.069Z,109.25
2024-05-09T03:28:08.793Z,122.06
2024-05-09T03:29:15.557Z,126.53
2024-05-09T03:30:30.678Z,130.97
2024-05-09T03:31:33.942Z,132.76
2024-05-09T03:32:40.815Z,134.60
2024-05-09T03:33:47.776Z,135.08
2024-05-09T03:34:54.648Z,131.28
2024-05-09T03:36:01.373Z,139.37
2024-05-09T03:37:08.118Z,137.53
2024-05-09T03:38:15.071Z,137.54
2024-05-09T03:39:21.961Z,134.98
2024-05-09T03:40:30.912Z,134.94
2024-05-09T03:41:38.092Z,126.04
2024-05-09T03:42:44.865Z,124.78
2024-05-09T03:43:51.661Z,121.69
2024-05-09T03:44:58.404Z,117.30
2024-05-09T03:46:05.108Z,117.25
2024-05-09T03:47:11.962Z,115.76
2024-05-09T03:48:19.121Z,120.96
2024-05-09T03:49:26.298Z,116.17
2024-05-09T03:50:35.650Z,116.85
2024-05-09T03:51:43.481Z,126.96
2024-05-09T03:52:50.285Z,132.27
2024-05-09T03:53:57.011Z,119.40
2024-05-09T03:55:03.742Z,116.43
2024-05-09T03:56:10.506Z,102.90
2024-05-09T03:57:17.476Z,94.94
2024-05-09T03:58:24.193Z,89.92
2024-05-09T03:59:31.149Z,96.17
2024-05-09T04:00:39.686Z,105.20
2024-05-09T04:01:47.170Z,113.49
2024-05-09T04:02:54.127Z,121.50
2024-05-09T04:04:00.983Z,137.85
2024-05-09T04:05:07.792Z,152.27
2024-05-09T04:06:14.546Z,147.63
2024-05-09T04:07:21.277Z,145.98
2024-05-09T04:08:28.032Z,131.46
2024-05-09T04:09:34.753Z,120.17
2024-05-09T04:10:41.482Z,115.78
2024-05-09T04:11:48.418Z,114.08
2024-05-09T04:12:55.180Z,119.26
2024-05-09T04:14:01.997Z,115.44
2024-05-09T04:15:12.156Z,132.75
2024-05-09T04:16:20.080Z,141.54
2024-05-09T04:17:27.058Z,138.75
2024-05-09T04:18:34.075Z,145.98
2024-05-09T04:19:40.989Z,150.11
2024-05-09T04:20:47.838Z,139.80
2024-05-09T04:21:54.593Z,134.06
2024-05-09T04:23:01.406Z,124.19
2024-05-09T04:24:08.137Z,114.55
2024-05-09T04:25:14.850Z,109.56
2024-05-09T04:26:21.575Z,105.10
2024-05-09T04:27:28.359Z,103.41
2024-05-09T04:28:35.059Z,95.90
2024-05-09T04:29:41.793Z,95.75
2024-05-09T04:30:48.488Z,94.45
2024-05-09T04:31:55.387Z,97.72
2024-05-09T04:33:02.291Z,95.71
2024-05-09T04:34:09.445Z,95.16
2024-05-09T04:35:16.287Z,96.24
2024-05-09T04:36:23.005Z,98.28
2024-05-09T04:37:29.745Z,101.45
2024-05-09T04:38:36.620Z,108.85
2024-05-09T04:39:43.431Z,113.52
2024-05-09T04:40:50.226Z,120.71
2024-05-09T04:41:56.977Z,118.77
2024-05-09T04:43:03.704Z,120.95
2024-05-09T04:44:10.431Z,120.88
2024-05-09T04:45:17.132Z,122.01
2024-05-09T04:46:23.861Z,115.21
2024-05-09T04:47:30.818Z,115.71
2024-05-09T04:48:37.822Z,118.92
2024-05-09T04:49:44.691Z,116.21
2024-05-09T04:50:51.582Z,116.06
2024-05-09T04:51:58.416Z,120.22
2024-05-09T04:53:05.798Z,116.69
2024-05-09T04:54:25.790Z,112.73
2024-05-09T04:55:24.489Z,111.09
2024-05-09T04:56:31.304Z,114.25
2024-05-09T04:57:38.054Z,112.07
2024-05-09T04:58:44.788Z,119.17
2024-05-09T04:59:51.603Z,121.55
2024-05-09T05:00:58.391Z,111.73
2024-05-09T05:02:05.325Z,109.89
2024-05-09T05:03:14.712Z,111.45
2024-05-09T05:04:22.826Z,104.08
2024-05-09T05:05:29.627Z,104.00
2024-05-09T05:06:36.396Z,94.35
2024-05-09T05:07:43.129Z,92.35
2024-05-09T05:08:49.881Z,91.59
2024-05-09T05:09:56.578Z,89.63
2024-05-09T05:11:03.435Z,95.73
2024-05-09T05:12:10.436Z,93.23
2024-05-09T05:13:18.590Z,93.36
2024-05-09T05:14:26.112Z,95.73
2024-05-09T05:15:32.843Z,92.83
2024-05-09T05:16:39.608Z,93.52
2024-05-09T05:17:46.537Z,90.60
2024-05-09T05:18:53.591Z,94.17
2024-05-09T05:20:00.631Z,97.43
2024-05-09T05:21:07.474Z,80.19
2024-05-09T05:22:14.218Z,40.95
2024-05-09T05:23:21.038Z,61.08
2024-05-09T05:24:27.843Z,44.79
2024-05-09T05:25:34.584Z,24.04
2024-05-09T05:26:41.343Z,13.50
2024-05-09T05:27:48.084Z,12.22
2024-05-09T05:28:54.906Z,13.16
2024-05-09T05:30:01.656Z,14.01
2024-05-09T05:31:08.354Z,11.36
2024-05-09T05:32:15.309Z,11.08
2024-05-09T05:33:23.076Z,17.65
2024-05-09T05:34:30.226Z,16.39
2024-05-09T05:35:37.042Z,20.76
2024-05-09T05:36:43.815Z,19.73
2024-05-09T05:37:50.525Z,31.86
2024-05-09T05:38:57.323Z,35.79
2024-05-09T05:40:04.443Z,36.94
2024-05-09T05:41:12.551Z,27.24
2024-05-09T05:42:19.350Z,19.84
2024-05-09T05:43:26.032Z,7.75
2024-05-09T05:44:32.827Z,7.81
2024-05-09T05:45:39.595Z,3.08
2024-05-09T05:46:46.288Z,6.30
2024-05-09T05:47:53.275Z,3.62
2024-05-09T05:49:00.372Z,2.39
2024-05-09T05:50:14.469Z,2.22
2024-05-09T05:51:18.953Z,3.28
2024-05-09T05:52:25.783Z,2.11
2024-05-09T05:53:32.573Z,2.95
2024-05-09T05:54:39.364Z,4.53
2024-05-09T05:55:46.113Z,2.29
2024-05-09T05:56:52.812Z,1.19
2024-05-09T05:57:59.532Z,2.24
2024-05-09T05:59:06.362Z,4.87
2024-05-09T06:00:21.548Z,6.94
2024-05-09T06:01:24.678Z,12.84
2024-05-09T06:02:31.500Z,12.16
2024-05-09T06:03:38.686Z,5.80
2024-05-09T06:04:46.076Z,4.14
2024-05-09T06:05:52.938Z,3.20
2024-05-09T06:06:59.682Z,2.31
2024-05-09T06:08:06.429Z,3.00
2024-05-09T06:09:13.145Z,2.14
2024-05-09T06:10:25.466Z,2.34
2024-05-09T06:11:31.714Z,2.23
2024-05-09T06:12:38.585Z,1.43
2024-05-09T06:13:45.317Z,1.19
2024-05-09T06:14:52.070Z,1.58
2024-05-09T06:15:58.781Z,2.93
2024-05-09T06:17:05.576Z,11.79
2024-05-09T06:18:12.968Z,5.81
2024-05-09T06:19:20.040Z,2.01
2024-05-09T06:20:34.772Z,2.37
2024-05-09T06:21:38.439Z,5.47
2024-05-09T06:22:45.217Z,3.72
2024-05-09T06:23:51.981Z,2.62
2024-05-09T06:24:58.727Z,1.78
2024-05-09T06:26:05.552Z,2.44
2024-05-09T06:27:12.300Z,1.71
2024-05-09T06:28:19.040Z,1.51
2024-05-09T06:29:25.881Z,4.10
2024-05-09T06:30:38.802Z,5.55
2024-05-09T06:31:44.482Z,6.23
2024-05-09T06:32:51.346Z,19.42
2024-05-09T06:33:58.398Z,32.53
2024-05-09T06:35:05.304Z,16.67
2024-05-09T06:36:12.004Z,12.03
2024-05-09T06:37:18.723Z,11.28
2024-05-09T06:38:25.487Z,5.50
2024-05-09T06:39:32.309Z,3.87
2024-05-09T06:40:40.539Z,2.35
2024-05-09T06:41:48.801Z,4.43
2024-05-09T06:42:55.518Z,3.34
2024-05-09T06:44:02.275Z,2.10
2024-05-09T06:45:09.017Z,1.66
2024-05-09T06:46:15.764Z,8.17
2024-05-09T06:47:22.535Z,32.51
2024-05-09T06:48:29.566Z,22.94
2024-05-09T06:49:36.422Z,10.97
2024-05-09T06:50:43.279Z,6.00
2024-05-09T06:51:50.086Z,2.86
2024-05-09T06:52:56.806Z,3.98
2024-05-09T06:54:03.523Z,13.11
2024-05-09T06:55:10.274Z,5.64
2024-05-09T06:56:17.010Z,7.73
2024-05-09T06:57:23.773Z,10.97
2024-05-09T06:58:30.542Z,18.95
2024-05-09T06:59:37.305Z,29.38
2024-05-09T07:00:44.084Z,14.98
2024-05-09T07:01:50.890Z,10.69
2024-05-09T07:02:58.990Z,9.46
2024-05-09T07:04:06.929Z,6.48
2024-05-09T07:05:13.946Z,2.66
2024-05-09T07:06:20.849Z,2.48
2024-05-09T07:07:27.611Z,1.37
2024-05-09T07:08:34.430Z,1.70
2024-05-09T07:09:41.214Z,0.98
2024-05-09T07:10:48.045Z,1.29
2024-05-09T07:11:54.974Z,2.04
2024-05-09T07:13:01.765Z,1.44
2024-05-09T07:14:08.531Z,1.11
2024-05-09T07:15:15.223Z,1.79
2024-05-09T07:16:21.962Z,2.33
2024-05-09T07:17:28.869Z,2.51
2024-05-09T07:18:36.083Z,1.28
2024-05-09T07:19:42.984Z,1.81
2024-05-09T07:20:50.637Z,2.05
2024-05-09T07:21:57.659Z,1.37
2024-05-09T07:23:04.472Z,2.24
2024-05-09T07:24:11.326Z,2.35
2024-05-09T07:25:18.101Z,1.46
2024-05-09T07:26:24.898Z,1.80
2024-05-09T07:27:31.601Z,1.58
2024-05-09T07:28:38.547Z,1.39
2024-05-09T07:29:45.320Z,1.27
2024-05-09T07:30:52.075Z,1.53
2024-05-09T07:31:58.801Z,1.70
2024-05-09T07:33:05.676Z,1.27
2024-05-09T07:34:12.700Z,1.94
2024-05-09T07:35:19.781Z,7.35
2024-05-09T07:36:26.643Z,22.37
2024-05-09T07:37:33.365Z,27.04
2024-05-09T07:38:40.253Z,25.04
2024-05-09T07:39:47.032Z,8.96
2024-05-09T07:40:53.818Z,7.41
2024-05-09T07:42:00.526Z,5.68
2024-05-09T07:43:07.615Z,7.41
2024-05-09T07:44:14.444Z,5.78
2024-05-09T07:45:40.167Z,3.42
2024-05-09T07:49:12.446Z,3.32
2024-05-09T07:53:38.268Z,8.15
2024-05-09T07:54:29.588Z,6.24
2024-05-09T07:55:36.675Z,4.85
2024-05-09T07:56:43.607Z,4.76
2024-05-09T07:57:50.413Z,8.44
2024-05-09T07:58:57.217Z,9.43
2024-05-09T08:00:04.579Z,4.60
2024-05-09T08:01:11.545Z,17.99
2024-05-09T08:02:18.370Z,10.48
2024-05-09T08:03:25.219Z,5.22
2024-05-09T08:04:32.070Z,3.58
2024-05-09T08:05:38.950Z,5.04
2024-05-09T08:06:45.875Z,3.72
2024-05-09T08:07:52.591Z,8.10
2024-05-09T08:09:03.098Z,6.80
2024-05-09T08:10:15.227Z,15.86
2024-05-09T08:11:22.605Z,9.06
2024-05-09T08:12:29.341Z,9.84
2024-05-09T08:13:36.060Z,7.91
2024-05-09T08:14:42.775Z,4.50
2024-05-09T08:15:49.514Z,3.74
2024-05-09T08:16:56.271Z,3.08
2024-05-09T08:18:03.205Z,2.53
2024-05-09T08:19:10.157Z,2.71
2024-05-09T08:20:26.591Z,1.62
2024-05-09T08:21:28.622Z,2.32
2024-05-09T08:22:35.394Z,1.24
2024-05-09T08:23:42.141Z,1.97
2024-05-09T08:24:48.915Z,1.39
2024-05-09T08:25:55.669Z,1.34
2024-05-09T08:27:02.380Z,3.36
2024-05-09T08:28:09.298Z,2.62
2024-05-09T08:29:16.211Z,2.25
2024-05-09T08:30:29.817Z,2.16
2024-05-09T08:31:34.607Z,1.70
2024-05-09T08:32:41.375Z,1.81
2024-05-09T08:33:48.650Z,1.27
2024-05-09T08:34:55.609Z,1.64
2024-05-09T08:36:02.384Z,0.97
2024-05-09T08:37:13.276Z,1.00
2024-05-09T08:38:20.761Z,1.44
2024-05-09T08:39:27.623Z,1.23
2024-05-09T08:40:36.423Z,1.14
2024-05-09T08:41:44.534Z,1.95
2024-05-09T08:42:51.306Z,1.79
2024-05-09T08:43:58.047Z,1.41
2024-05-09T08:45:04.775Z,1.40
2024-05-09T08:46:11.612Z,1.43
2024-05-09T08:47:18.443Z,1.32
2024-05-09T08:48:25.369Z,1.16
2024-05-09T08:49:32.240Z,1.97
2024-05-09T08:50:40.164Z,1.21
2024-05-09T08:51:47.308Z,1.56
2024-05-09T08:52:54.007Z,1.37
2024-05-09T08:54:00.776Z,1.75
2024-05-09T08:55:07.614Z,1.37
2024-05-09T08:56:14.468Z,1.41
2024-05-09T08:57:21.189Z,1.35
2024-05-09T08:58:27.911Z,1.90
2024-05-09T08:59:34.651Z,1.11
2024-05-09T09:00:41.486Z,3.11
2024-05-09T09:01:48.422Z,0.94
2024-05-09T09:02:55.206Z,1.84
2024-05-09T09:04:02.253Z,1.07
2024-05-09T09:05:09.234Z,1.54
2024-05-09T09:06:16.122Z,2.09
2024-05-09T09:07:22.909Z,1.24
2024-05-09T09:08:29.693Z,1.41
2024-05-09T09:09:36.515Z,1.80
2024-05-09T09:10:43.523Z,1.11
2024-05-09T09:11:50.328Z,2.04
2024-05-09T09:12:57.067Z,1.52
2024-05-09T09:14:03.808Z,1.07
2024-05-09T09:15:10.540Z,1.84
2024-05-09T09:16:17.484Z,8.78
2024-05-09T09:17:24.356Z,4.74
2024-05-09T09:18:31.470Z,2.77
2024-05-09T09:19:38.505Z,3.44
2024-05-09T09:20:45.270Z,1.33
2024-05-09T09:21:52.057Z,1.20
2024-05-09T09:22:58.798Z,0.96
2024-05-09T09:24:06.991Z,1.13
2024-05-09T09:25:14.862Z,2.50
2024-05-09T09:26:21.607Z,1.45
2024-05-09T09:27:28.399Z,2.27
2024-05-09T09:28:35.090Z,3.23
2024-05-09T09:29:41.807Z,1.38
2024-05-09T09:30:48.552Z,1.88
2024-05-09T09:31:55.249Z,7.85
2024-05-09T09:33:02.109Z,4.80
2024-05-09T09:34:09.130Z,2.05
2024-05-09T09:35:16.217Z,4.33
2024-05-09T09:36:22.941Z,10.94
2024-05-09T09:37:29.686Z,8.22
2024-05-09T09:38:36.415Z,3.27
2024-05-09T09:39:43.155Z,3.45
2024-05-09T09:40:50.256Z,1.71
2024-05-09T09:41:57.119Z,3.07
2024-05-09T09:43:03.862Z,2.71
2024-05-09T09:44:10.632Z,1.80
2024-05-09T09:45:17.355Z,13.57
2024-05-09T09:46:24.230Z,3.15
2024-05-09T09:47:31.136Z,2.14
2024-05-09T09:48:38.001Z,2.58
2024-05-09T09:49:44.824Z,10.77
2024-05-09T09:50:51.636Z,32.94
2024-05-09T09:51:58.427Z,4.64
2024-05-09T09:53:05.171Z,1.35
2024-05-09T09:54:11.868Z,1.00
2024-05-09T09:55:18.625Z,2.88
2024-05-09T09:56:25.420Z,1.83
2024-05-09T09:57:32.167Z,1.00
2024-05-09T09:58:38.897Z,7.75
2024-05-09T09:59:45.612Z,5.11
2024-05-09T10:00:52.398Z,3.56
2024-05-09T10:01:59.282Z,2.02
2024-05-09T10:03:06.081Z,1.80
2024-05-09T10:04:12.841Z,3.03
2024-05-09T10:05:19.734Z,6.41
2024-05-09T10:06:26.566Z,3.69
2024-05-09T10:07:33.323Z,1.34
2024-05-09T10:08:40.295Z,1.80
2024-05-09T10:09:47.215Z,2.96
2024-05-09T10:10:54.215Z,5.46
2024-05-09T10:12:01.159Z,2.21
2024-05-09T10:13:08.603Z,1.66
2024-05-09T10:14:15.517Z,1.67
2024-05-09T10:15:22.235Z,1.31
2024-05-09T10:16:29.030Z,2.10
2024-05-09T10:17:35.883Z,1.45
2024-05-09T10:18:42.988Z,1.90
2024-05-09T10:19:50.110Z,1.59
2024-05-09T10:20:56.867Z,4.53
2024-05-09T10:22:03.677Z,8.35
2024-05-09T10:23:10.503Z,9.09
2024-05-09T10:24:17.240Z,13.37
2024-05-09T10:25:24.361Z,11.55
2024-05-09T10:26:31.170Z,7.38
2024-05-09T10:27:37.918Z,5.25
2024-05-09T10:28:44.669Z,3.62
2024-05-09T10:29:51.401Z,4.12
2024-05-09T10:30:58.156Z,9.21
2024-05-09T10:32:04.850Z,31.67
2024-05-09T10:33:11.984Z,12.04
2024-05-09T10:34:19.220Z,3.56
2024-05-09T10:35:26.162Z,3.29
2024-05-09T10:36:32.913Z,2.26
2024-05-09T10:37:39.643Z,1.43
2024-05-09T10:38:46.363Z,8.25
2024-05-09T10:39:53.136Z,10.38
2024-05-09T10:40:59.888Z,5.81
2024-05-09T10:42:06.696Z,4.49
2024-05-09T10:43:13.547Z,1.55
2024-05-09T10:44:20.276Z,1.36
2024-05-09T10:45:27.097Z,2.79
2024-05-09T10:46:34.146Z,1.48
2024-05-09T10:47:40.933Z,0.99
2024-05-09T10:48:48.429Z,1.14
2024-05-09T10:49:55.681Z,4.90
2024-05-09T10:51:02.455Z,4.18
2024-05-09T10:52:09.266Z,2.74
2024-05-09T10:53:16.115Z,2.81
2024-05-09T10:54:22.815Z,1.33
2024-05-09T10:55:29.618Z,1.46
2024-05-09T10:56:36.332Z,1.45
2024-05-09T10:57:43.156Z,1.11
2024-05-09T10:58:49.888Z,3.16
2024-05-09T10:59:56.614Z,1.40
2024-05-09T11:01:06.613Z,1.16
2024-05-09T11:02:14.220Z,1.46
2024-05-09T11:03:21.104Z,1.73
2024-05-09T11:04:27.869Z,1.20
2024-05-09T11:05:34.813Z,1.30
2024-05-09T11:06:41.736Z,1.59
2024-05-09T11:07:48.510Z,1.04
2024-05-09T11:08:55.247Z,1.17
2024-05-09T11:10:02.086Z,1.41
2024-05-09T11:11:09.159Z,1.24
2024-05-09T11:12:16.015Z,0.99
2024-05-09T11:13:22.791Z,1.14
2024-05-09T11:14:29.528Z,1.24
2024-05-09T11:15:36.415Z,0.98
2024-05-09T11:16:43.108Z,1.51
2024-05-09T11:17:49.871Z,0.98
2024-05-09T11:18:57.056Z,1.25
2024-05-09T11:20:10.470Z,2.08
2024-05-09T11:21:15.583Z,1.66
2024-05-09T11:22:22.360Z,1.49
2024-05-09T11:23:29.123Z,1.52
2024-05-09T11:24:35.937Z,2.45
2024-05-09T11:25:42.706Z,2.27
2024-05-09T11:26:49.422Z,0.89
2024-05-09T11:27:56.169Z,1.64
2024-05-09T11:29:02.887Z,1.08
2024-05-09T11:30:14.309Z,1.09
2024-05-09T11:31:21.611Z,1.28
2024-05-09T11:32:28.893Z,0.98
2024-05-09T11:33:35.920Z,1.42
2024-05-09T11:34:42.979Z,1.14
2024-05-09T11:35:49.832Z,1.32
2024-05-09T11:36:56.633Z,1.04
2024-05-09T11:38:03.391Z,1.29
2024-05-09T11:39:10.092Z,2.09
2024-05-09T11:40:24.734Z,1.97
2024-05-09T11:41:28.456Z,0.93
2024-05-09T11:42:35.196Z,1.24
2024-05-09T11:43:41.895Z,1.09
2024-05-09T11:44:48.617Z,2.01
2024-05-09T11:45:55.385Z,1.03
2024-05-09T11:47:02.168Z,1.28
2024-05-09T11:48:09.023Z,1.66
2024-05-09T11:49:15.864Z,1.05
2024-05-09T11:50:29.605Z,1.44
2024-05-09T11:51:34.352Z,0.88
2024-05-09T11:52:41.125Z,0.97
2024-05-09T11:53:47.821Z,1.38
2024-05-09T11:54:54.646Z,1.21
2024-05-09T11:56:01.433Z,2.04
2024-05-09T11:57:08.108Z,1.06
2024-05-09T11:58:14.925Z,2.17
2024-05-09T11:59:21.634Z,1.41
2024-05-09T12:00:34.317Z,2.35
2024-05-09T12:01:40.086Z,1.69
2024-05-09T12:02:46.879Z,2.99
2024-05-09T12:03:53.793Z,1.45
2024-05-09T12:05:00.803Z,1.55
2024-05-09T12:06:07.808Z,0.79
2024-05-09T12:07:14.680Z,0.83
2024-05-09T12:08:21.434Z,0.79
2024-05-09T12:09:28.253Z,1.18
2024-05-09T12:10:36.464Z,1.06
2024-05-09T12:11:43.744Z,1.11
2024-05-09T12:12:50.543Z,1.13
2024-05-09T12:13:57.265Z,1.07
2024-05-09T12:15:04.046Z,0.79
2024-05-09T12:16:10.849Z,1.22
2024-05-09T12:17:17.676Z,1.00
2024-05-09T12:18:24.475Z,0.82
2024-05-09T12:19:31.324Z,0.85
2024-05-09T12:20:39.915Z,1.22
2024-05-09T12:21:47.160Z,1.14
2024-05-09T12:22:53.869Z,1.09
2024-05-09T12:24:00.579Z,1.14
2024-05-09T12:25:07.405Z,0.94
2024-05-09T12:26:14.184Z,1.77
2024-05-09T12:27:20.962Z,0.83
2024-05-09T12:28:27.744Z,3.24
2024-05-09T12:29:37.586Z,6.39
2024-05-09T12:30:45.386Z,3.35
2024-05-09T12:31:52.205Z,11.90
2024-05-09T12:32:59.011Z,13.21
2024-05-09T12:34:05.905Z,9.81
2024-05-09T12:35:12.747Z,7.35
2024-05-09T12:36:19.474Z,3.49
2024-05-09T12:37:26.267Z,2.91
2024-05-09T12:38:32.979Z,4.41
2024-05-09T12:39:39.741Z,4.61
2024-05-09T12:40:46.559Z,4.35
2024-05-09T12:41:53.394Z,8.12
2024-05-09T12:43:00.185Z,16.42
2024-05-09T12:44:06.884Z,11.23
2024-05-09T12:45:13.636Z,4.31
2024-05-09T12:46:20.429Z,2.38
2024-05-09T12:47:27.299Z,2.23
2024-05-09T12:48:34.274Z,1.38
2024-05-09T12:49:41.190Z,2.24
2024-05-09T12:50:48.163Z,1.14
2024-05-09T12:51:55.125Z,1.07
2024-05-09T12:53:03.059Z,1.66
2024-05-09T12:54:10.691Z,1.22
2024-05-09T12:55:17.494Z,7.53
2024-05-09T12:56:24.329Z,12.86
2024-05-09T12:57:31.088Z,12.97
2024-05-09T12:58:37.852Z,12.63
2024-05-09T12:59:44.605Z,8.18
2024-05-09T13:00:51.518Z,6.03
2024-05-09T13:02:00.541Z,2.07
2024-05-09T13:03:07.985Z,2.29
2024-05-09T13:04:14.905Z,3.20
2024-05-09T13:05:21.924Z,1.23
2024-05-09T13:06:28.764Z,2.10
2024-05-09T13:07:35.481Z,1.02
2024-05-09T13:08:42.191Z,1.20
2024-05-09T13:09:48.959Z,2.30
2024-05-09T13:10:55.730Z,2.54
2024-05-09T13:12:02.461Z,6.05
2024-05-09T13:13:09.413Z,6.30
2024-05-09T13:14:16.277Z,3.41
2024-05-09T13:15:23.022Z,2.68
2024-05-09T13:16:29.768Z,1.21
2024-05-09T13:17:36.597Z,1.23
2024-05-09T13:18:43.524Z,1.98
2024-05-09T13:19:50.218Z,0.96
2024-05-09T13:20:56.940Z,7.58
2024-05-09T13:22:03.761Z,1.71
2024-05-09T13:23:10.471Z,0.85
2024-05-09T13:24:17.179Z,1.33
2024-05-09T13:25:23.895Z,1.92
2024-05-09T13:26:30.634Z,1.38
2024-05-09T13:27:37.420Z,1.21
2024-05-09T13:28:44.123Z,1.16
2024-05-09T13:29:50.895Z,1.44
2024-05-09T13:30:57.643Z,2.39
2024-05-09T13:32:04.406Z,2.08
2024-05-09T13:33:12.421Z,3.18
2024-05-09T13:34:20.005Z,3.18
2024-05-09T13:35:26.728Z,6.13
2024-05-09T13:36:33.480Z,8.20
2024-05-09T13:37:40.181Z,6.02
2024-05-09T13:38:46.924Z,4.92
2024-05-09T13:39:53.649Z,3.40
2024-05-09T13:41:00.417Z,2.88
2024-05-09T13:42:07.232Z,2.33
2024-05-09T13:43:14.023Z,3.74
2024-05-09T13:44:20.790Z,3.14
2024-05-09T13:45:27.553Z,5.17
2024-05-09T13:46:34.379Z,12.95
2024-05-09T13:47:41.445Z,11.31
2024-05-09T13:48:48.370Z,16.64
2024-05-09T13:49:55.156Z,32.11
2024-05-09T13:51:01.904Z,10.71
2024-05-09T13:52:08.777Z,10.53
2024-05-09T13:53:15.572Z,12.85
2024-05-09T13:54:22.787Z,6.54
2024-05-09T13:55:29.647Z,8.62
2024-05-09T13:56:36.390Z,9.69
2024-05-09T13:57:43.152Z,8.22
2024-05-09T13:58:49.837Z,10.34
2024-05-09T13:59:56.556Z,4.03
2024-05-09T14:01:03.431Z,8.35
2024-05-09T14:02:10.430Z,6.45
2024-05-09T14:03:19.283Z,14.41
2024-05-09T14:04:27.492Z,29.58
2024-05-09T14:05:34.525Z,29.51
2024-05-09T14:06:41.437Z,14.23
2024-05-09T14:07:48.172Z,7.12
2024-05-09T14:08:54.852Z,7.06
2024-05-09T14:10:01.710Z,3.17
2024-05-09T14:11:08.535Z,2.63
2024-05-09T14:12:15.280Z,2.26
2024-05-09T14:13:22.124Z,2.48
2024-05-09T14:14:28.871Z,12.33
2024-05-09T14:15:35.599Z,16.88
2024-05-09T14:16:42.420Z,9.28
2024-05-09T14:17:49.267Z,6.93
2024-05-09T14:18:56.060Z,2.78
2024-05-09T14:20:03.117Z,8.66
2024-05-09T14:21:10.514Z,14.57
2024-05-09T14:22:17.340Z,3.20
2024-05-09T14:23:24.144Z,2.47
2024-05-09T14:24:30.953Z,2.00
2024-05-09T14:25:40.559Z,1.99
2024-05-09T14:26:49.135Z,1.29
2024-05-09T14:27:55.953Z,1.46
2024-05-09T14:29:02.768Z,1.27
2024-05-09T14:30:17.955Z,0.96
2024-05-09T14:31:21.207Z,1.26
2024-05-09T14:32:27.991Z,1.33
2024-05-09T14:33:34.853Z,1.39
2024-05-09T14:34:41.875Z,1.68
2024-05-09T14:35:48.715Z,1.36
2024-05-09T14:36:55.450Z,7.15
2024-05-09T14:38:02.208Z,25.14
2024-05-09T14:39:08.923Z,14.36
2024-05-09T14:40:30.466Z,8.33